D Lo, MS (39062)

10:52 AM CDT on July 23, 2014 (GMT -0500)
May Estates (KMSBRAND9) Elev 380 ft | 32.15 °N, 89.92 °W | Change Station

Current weather conditions updated 3 seconds ago

Partly Cloudy
Partly Cloudy
82.7 °F
Feels Like 87 °F
N
0.9
Wind Variable Wind from SSE
Gusts 0.9 mph

Today is forecast to be Warmer than yesterday. A few thunderstorms possible.

Today
High -- | Low -- °F
--% Chance of Precip.
Yesterday
High -- | Low -- °F
Precip. -- in
6:09 AM 8:02 PM
Waning Crescent, 10% visible
Pressure 30.06 in
Visibility 10.0 miles
Clouds Few 3500 ft
Mostly Cloudy 10000 ft
Heat Index 87 °F
Dew Point 70 °F
Humidity 65%
Rainfall 0.00 in
Snow Depth Not available.
UV 3 out of 12
Pollen 3.20 out of 12
Air Quality Not available.
Flu Activity Not available.
METAR KJAN 231454Z 11003KT 10SM FEW035 BKN100 28/21 A3008 RMK AO2 SLP180 T02780211 50000

More Conditions Fewer Conditions

Pressure 30.06 in
Visibility 10.0 miles
Clouds Few 3500 ft
Mostly Cloudy 10000 ft
Heat Index 87 °F
Dew Point 70 °F
Humidity 65%
Rainfall 0.00 in
Snow Depth Not available.
UV 3 out of 12
Pollen 3.20 out of 12
Air Quality Not available.
Flu Activity Not available.
METAR KJAN 231454Z 11003KT 10SM FEW035 BKN100 28/21 A3008 RMK AO2 SLP180 T02780211 50000

More Conditions Fewer Conditions

10-Day Weather Forecast

Almanac

Astronomy

Jul. 23, 2014 Rise Set
Actual Time 6:09 AM CDT 8:02 PM CDT
Civil Twilight 5:41 AM CDT 8:29 PM CDT
Nautical Twilight 5:09 AM CDT 9:02 PM CDT
Astronomical Twilight 4:34 AM CDT 9:37 PM CDT
Moon 3:26 AM CDT 5:32 PM CDT
Length of Visible Light 14h 47m
Length of Day
13h 53m
Tomorrow will be 1m 14s shorter.
Waning Crescent, 10% of the Moon is Illuminated
Today
Waning Crescent
Jul 26
New
Aug 3
First Quarter
Aug 10
Full
Aug 17
Last Quarter

Today's Extremes

State Highs State Lows

Community

WunderPhotos

Upload Photos

1,736,644 photos uploaded!

Nearby

Snow Depth

Station Depth Elevation
No new snow has been reported.

Earthquake Activity

City Distance Mag. Time & Date
No recent earthquake activity has been reported nearby.
Minimum magnitude displayed is 2.5.

Coastal Water Temperatures

Place Temperature
No Stations Reporting

Nearby Weather Stations

Station Location Temp. Heat Index Dew Point Humidity Wind Precip. Elev Updated Type
May Estates, Brandon, MS 82.7 °F 87 °F 70 °F 65% SSE  at  0.9 mph 0.00 in / hr 380 ft 10:52 AM CDT Rapid Fire
Florence, FLORENCE, MS 81.7 °F 88 °F 75 °F 80% South  at  1.7 mph - / hr 367 ft 10:49 AM CDT Normal
Country Meadows, Brandon, MS 83.7 °F 91 °F 74 °F 73% South  at  2.2 mph - / hr 367 ft 10:37 AM CDT Normal

Show More Stations Show Fewer Stations